createdAt,value
2022-09-28T00:00:08.716Z,15.45
2022-09-28T00:02:39.269Z,17.40
2022-09-28T00:05:10.194Z,17.15
2022-09-28T00:07:40.820Z,16.08
2022-09-28T00:10:11.681Z,17.83
2022-09-28T00:12:42.487Z,20.67
2022-09-28T00:15:13.280Z,20.25
2022-09-28T00:17:43.832Z,19.10
2022-09-28T00:20:15.286Z,18.95
2022-09-28T00:22:45.699Z,20.38
2022-09-28T00:25:16.153Z,19.00
2022-09-28T00:27:52.002Z,18.88
2022-09-28T00:30:22.409Z,19.75
2022-09-28T00:32:52.929Z,18.70
2022-09-28T00:35:23.211Z,19.45
2022-09-28T00:37:54.269Z,20.60
2022-09-28T00:40:24.721Z,23.15
2022-09-28T00:42:55.317Z,22.88
2022-09-28T00:45:29.270Z,20.70
2022-09-28T00:48:02.742Z,19.25
2022-09-28T00:50:38.634Z,19.52
2022-09-28T00:53:25.275Z,20.63
2022-09-28T00:56:05.701Z,19.80
2022-09-28T00:58:43.290Z,20.67
2022-09-28T01:01:14.669Z,23.58
2022-09-28T01:03:50.105Z,24.38
2022-09-28T01:06:25.610Z,23.83
2022-09-28T01:09:00.471Z,25.65
2022-09-28T01:11:33.323Z,27.33
2022-09-28T01:14:05.432Z,25.67
2022-09-28T01:17:04.050Z,26.17
2022-09-28T01:20:04.636Z,24.23
2022-09-28T01:23:14.987Z,25.70
2022-09-28T01:26:04.788Z,24.77
2022-09-28T01:28:35.666Z,22.05
2022-09-28T01:31:13.504Z,22.88
2022-09-28T01:33:54.422Z,22.92
2022-09-28T01:36:39.531Z,22.25
2022-09-28T01:39:17.662Z,23.92
2022-09-28T01:41:53.586Z,22.58
2022-09-28T01:44:26.043Z,22.77
2022-09-28T01:46:57.040Z,23.27
2022-09-28T01:49:36.282Z,21.33
2022-09-28T01:52:16.717Z,23.25
2022-09-28T01:54:59.178Z,21.42
2022-09-28T01:57:36.964Z,25.95
2022-09-28T02:00:12.711Z,25.33
2022-09-28T02:02:58.306Z,26.50
2022-09-28T02:05:34.872Z,24.88
2022-09-28T02:08:29.146Z,27.98
2022-09-28T02:11:17.590Z,23.98
2022-09-28T02:13:59.407Z,26.67
2022-09-28T02:16:47.147Z,26.40
2022-09-28T02:19:21.814Z,28.85
2022-09-28T02:22:07.987Z,28.30
2022-09-28T02:24:45.456Z,29.20
2022-09-28T02:27:24.175Z,30.10
2022-09-28T02:29:54.582Z,29.20
2022-09-28T02:32:26.531Z,28.30
2022-09-28T02:34:58.215Z,28.17
2022-09-28T02:37:29.912Z,27.88
2022-09-28T02:40:00.340Z,27.10
2022-09-28T02:42:51.746Z,27.70
2022-09-28T02:45:59.802Z,29.38
2022-09-28T02:49:10.516Z,26.92
2022-09-28T02:52:06.342Z,26.30
2022-09-28T02:55:10.218Z,26.38
2022-09-28T02:58:09.083Z,24.60
2022-09-28T03:00:47.733Z,27.83
2022-09-28T03:03:37.353Z,27.48
2022-09-28T03:06:22.769Z,27.60
2022-09-28T03:09:05.472Z,28.10
2022-09-28T03:11:43.312Z,27.60
2022-09-28T03:14:14.789Z,31.00
2022-09-28T03:16:48.828Z,31.63
2022-09-28T03:19:22.052Z,32.60
2022-09-28T03:21:52.311Z,36.78
2022-09-28T03:24:22.696Z,34.17
2022-09-28T03:26:53.356Z,36.33
2022-09-28T03:29:23.998Z,38.33
2022-09-28T03:31:54.497Z,37.90
2022-09-28T03:34:24.996Z,36.33
2022-09-28T03:36:55.323Z,38.08
2022-09-28T03:39:25.811Z,36.70
2022-09-28T03:41:56.170Z,35.20
2022-09-28T03:44:26.591Z,34.92
2022-09-28T03:46:56.883Z,35.03
2022-09-28T03:49:27.403Z,33.85
2022-09-28T03:51:57.691Z,32.78
2022-09-28T03:54:28.151Z,30.67
2022-09-28T03:56:58.701Z,30.08
2022-09-28T03:59:28.993Z,27.75
2022-09-28T04:01:59.969Z,33.65
2022-09-28T04:04:30.277Z,31.30
2022-09-28T04:07:01.126Z,32.03
2022-09-28T04:09:31.543Z,33.30
2022-09-28T04:12:04.317Z,30.10
2022-09-28T04:14:35.083Z,31.92
2022-09-28T04:17:05.616Z,29.38
2022-09-28T04:19:36.121Z,29.60
2022-09-28T04:22:07.034Z,32.83
2022-09-28T04:24:37.447Z,32.47
2022-09-28T04:27:27.297Z,31.30
2022-09-28T04:29:57.590Z,30.77
2022-09-28T04:32:28.155Z,30.63
2022-09-28T04:34:58.480Z,32.38
2022-09-28T04:37:28.918Z,34.55
2022-09-28T04:39:59.558Z,28.60
2022-09-28T04:42:30.063Z,26.23
2022-09-28T04:45:00.878Z,23.15
2022-09-28T04:47:33.073Z,25.77
2022-09-28T04:50:03.391Z,23.77
2022-09-28T04:52:34.100Z,25.17
2022-09-28T04:55:04.580Z,22.23
2022-09-28T04:57:37.786Z,22.73
2022-09-28T05:00:09.177Z,21.27
2022-09-28T05:02:39.899Z,20.38
2022-09-28T05:05:10.677Z,19.75
2022-09-28T05:07:41.357Z,20.13
2022-09-28T05:10:11.823Z,19.38
2022-09-28T05:12:42.415Z,25.10
2022-09-28T05:15:13.861Z,19.55
2022-09-28T05:17:44.394Z,17.58
2022-09-28T05:20:15.200Z,18.45
2022-09-28T05:22:45.672Z,18.65
2022-09-28T05:25:16.060Z,16.63
2022-09-28T05:27:46.681Z,16.05
2022-09-28T05:30:17.803Z,15.30
2022-09-28T05:32:48.317Z,17.33
2022-09-28T05:35:22.923Z,16.17
2022-09-28T05:37:53.380Z,16.13
2022-09-28T05:40:24.053Z,16.52
2022-09-28T05:42:54.438Z,15.85
2022-09-28T05:45:24.729Z,18.45
2022-09-28T05:47:56.116Z,16.60
2022-09-28T05:50:27.157Z,16.58
2022-09-28T05:53:07.014Z,15.65
2022-09-28T05:55:38.761Z,15.68
2022-09-28T05:58:10.626Z,16.05
2022-09-28T06:00:41.015Z,16.88
2022-09-28T06:03:15.231Z,13.68
2022-09-28T06:05:45.720Z,15.13
2022-09-28T06:08:16.757Z,14.13
2022-09-28T06:10:47.303Z,11.75
2022-09-28T06:13:17.971Z,9.65
2022-09-28T06:15:48.462Z,10.15
2022-09-28T06:18:18.862Z,12.48
2022-09-28T06:20:50.500Z,11.10
2022-09-28T06:23:20.953Z,11.52
2022-09-28T06:25:51.377Z,11.90
2022-09-28T06:28:21.797Z,11.20
2022-09-28T06:30:52.316Z,10.23
2022-09-28T06:33:22.894Z,10.70
2022-09-28T06:35:54.222Z,11.07
2022-09-28T06:38:24.668Z,10.75
2022-09-28T06:40:55.097Z,11.57
2022-09-28T06:43:25.624Z,11.05
2022-09-28T06:45:56.984Z,11.60
2022-09-28T06:48:27.558Z,10.63
2022-09-28T06:51:00.488Z,10.68
2022-09-28T06:53:31.865Z,10.40
2022-09-28T06:56:04.606Z,10.32
2022-09-28T06:58:35.069Z,10.35
2022-09-28T07:01:06.277Z,9.73
2022-09-28T07:03:36.946Z,10.75
2022-09-28T07:06:07.374Z,10.48
2022-09-28T07:08:38.077Z,11.05
2022-09-28T07:11:10.260Z,10.10
2022-09-28T07:13:50.439Z,9.25
2022-09-28T07:16:26.519Z,11.73
2022-09-28T07:18:57.593Z,11.07
2022-09-28T07:21:30.429Z,12.27
2022-09-28T07:24:02.037Z,11.30
2022-09-28T07:26:35.373Z,9.43
2022-09-28T07:29:06.003Z,11.50
2022-09-28T07:31:37.266Z,10.90
2022-09-28T07:34:07.716Z,10.10
2022-09-28T07:36:38.621Z,11.80
2022-09-28T07:39:09.268Z,10.10
2022-09-28T07:41:41.778Z,9.95
2022-09-28T07:44:12.628Z,10.55
2022-09-28T07:46:44.083Z,9.75
2022-09-28T07:49:14.912Z,9.75
2022-09-28T07:51:46.810Z,11.57
2022-09-28T07:54:17.280Z,10.65
2022-09-28T07:56:50.483Z,10.38
2022-09-28T07:59:21.410Z,10.25
2022-09-28T08:01:51.816Z,10.55
2022-09-28T08:04:23.283Z,10.45
2022-09-28T08:06:53.733Z,11.23
2022-09-28T08:09:24.478Z,11.80
2022-09-28T08:11:54.801Z,11.50
2022-09-28T08:14:25.925Z,10.63
2022-09-28T08:16:56.654Z,12.32
2022-09-28T08:19:27.365Z,12.60
2022-09-28T08:21:57.868Z,11.43
2022-09-28T08:24:33.302Z,11.75
2022-09-28T08:27:03.659Z,12.20
2022-09-28T08:29:34.390Z,12.15
2022-09-28T08:32:05.298Z,12.23
2022-09-28T08:34:35.917Z,11.93
2022-09-28T08:37:06.987Z,12.90
2022-09-28T08:39:38.006Z,12.45
2022-09-28T08:42:41.836Z,9.82
2022-09-28T08:45:23.263Z,12.85
2022-09-28T08:48:21.380Z,11.50
2022-09-28T08:51:05.477Z,12.25
2022-09-28T08:54:11.081Z,12.05
2022-09-28T08:56:50.065Z,12.77
2022-09-28T08:59:27.292Z,12.70
2022-09-28T09:02:03.196Z,11.90
2022-09-28T09:04:36.412Z,12.48
2022-09-28T09:07:33.138Z,13.13
2022-09-28T09:10:33.010Z,13.48
2022-09-28T09:13:33.018Z,13.65
2022-09-28T09:16:29.035Z,12.98
2022-09-28T09:19:22.562Z,12.27
2022-09-28T09:22:25.884Z,14.07
2022-09-28T09:25:20.302Z,13.68
2022-09-28T09:28:24.004Z,12.77
2022-09-28T09:31:10.855Z,14.00
2022-09-28T09:34:07.540Z,13.75
2022-09-28T09:37:14.979Z,14.93
2022-09-28T09:40:17.844Z,15.48
2022-09-28T09:43:09.486Z,13.35
2022-09-28T09:45:59.221Z,14.60
2022-09-28T09:48:52.894Z,16.40
2022-09-28T09:51:41.493Z,13.93
2022-09-28T09:54:36.415Z,16.25
2022-09-28T09:57:18.251Z,15.25
2022-09-28T09:59:49.728Z,16.17
2022-09-28T10:02:30.252Z,15.23
2022-09-28T10:05:09.565Z,15.05
2022-09-28T10:08:17.709Z,14.75
2022-09-28T10:11:14.935Z,14.20
2022-09-28T10:13:46.682Z,14.75
2022-09-28T10:16:19.055Z,14.10
2022-09-28T10:18:51.653Z,16.83
2022-09-28T10:21:26.318Z,15.02
2022-09-28T10:24:04.605Z,15.02
2022-09-28T10:26:41.676Z,13.27
2022-09-28T10:29:22.828Z,15.73
2022-09-28T10:31:55.450Z,35.67
2022-09-28T10:34:32.085Z,31.67
2022-09-28T10:37:06.813Z,19.27
2022-09-28T10:39:42.254Z,31.88
2022-09-28T10:42:16.441Z,40.40
2022-09-28T10:45:04.286Z,78.15
2022-09-28T10:47:36.214Z,54.40
2022-09-28T10:50:17.168Z,54.53
2022-09-28T10:52:48.952Z,27.02
2022-09-28T10:55:34.424Z,53.13
2022-09-28T10:58:30.395Z,52.20
2022-09-28T11:01:11.594Z,39.75
2022-09-28T11:03:54.637Z,46.05
2022-09-28T11:06:32.734Z,31.33
2022-09-28T11:09:10.615Z,29.92
2022-09-28T11:11:45.018Z,25.15
2022-09-28T11:14:42.746Z,19.30
2022-09-28T11:17:29.567Z,17.67
2022-09-28T11:20:04.175Z,28.15
2022-09-28T11:22:44.366Z,54.20
2022-09-28T11:25:34.158Z,65.45
2022-09-28T11:28:07.732Z,23.83
2022-09-28T11:30:54.998Z,31.60
2022-09-28T11:33:47.645Z,30.38
2022-09-28T11:36:42.210Z,32.03
2022-09-28T11:39:27.858Z,34.70
2022-09-28T11:42:16.534Z,39.03
2022-09-28T11:44:51.871Z,25.33
2022-09-28T11:47:44.671Z,22.70
2022-09-28T11:50:52.963Z,22.40
2022-09-28T11:53:46.554Z,21.13
2022-09-28T11:56:33.277Z,18.92
2022-09-28T11:59:17.293Z,33.17
2022-09-28T12:01:54.174Z,24.15
2022-09-28T12:04:39.039Z,26.38
2022-09-28T12:07:41.031Z,25.02
2022-09-28T12:10:45.644Z,22.27
2022-09-28T12:13:35.333Z,25.65
2022-09-28T12:17:00.437Z,20.98
2022-09-28T12:19:37.945Z,19.00
2022-09-28T12:22:23.873Z,29.83
2022-09-28T12:24:56.993Z,30.73
2022-09-28T12:27:55.855Z,24.05
2022-09-28T12:30:27.980Z,20.33
2022-09-28T12:33:07.571Z,19.33
2022-09-28T12:36:07.185Z,21.45
2022-09-28T12:39:24.028Z,20.33
2022-09-28T12:42:36.046Z,19.48
2022-09-28T12:45:53.157Z,19.05
2022-09-28T12:49:33.112Z,19.58
2022-09-28T12:51:58.003Z,17.85
2022-09-28T12:54:55.386Z,18.65
2022-09-28T12:57:48.033Z,19.90
2022-09-28T13:00:25.370Z,20.38
2022-09-28T13:03:33.351Z,20.10
2022-09-28T13:06:32.124Z,18.02
2022-09-28T13:09:27.784Z,19.17
2022-09-28T13:12:16.602Z,17.33
2022-09-28T13:15:17.756Z,19.10
2022-09-28T13:17:57.373Z,19.10
2022-09-28T13:20:58.676Z,20.75
2022-09-28T13:23:41.890Z,18.85
2022-09-28T13:26:33.876Z,29.50
2022-09-28T13:29:11.133Z,33.50
2022-09-28T13:31:53.486Z,33.28
2022-09-28T13:34:31.443Z,28.10
2022-09-28T13:37:23.807Z,30.58
2022-09-28T13:39:58.523Z,33.08
2022-09-28T13:43:01.631Z,28.80
2022-09-28T13:45:51.484Z,24.20
2022-09-28T13:51:30.427Z,25.73
2022-09-28T13:54:19.170Z,23.25
2022-09-28T13:57:12.109Z,22.60
2022-09-28T14:00:06.085Z,19.05
2022-09-28T14:02:43.558Z,20.48
2022-09-28T14:05:36.402Z,22.00
2022-09-28T14:08:33.138Z,23.08
2022-09-28T14:11:43.177Z,21.52
2022-09-28T14:14:46.787Z,20.48
2022-09-28T14:17:52.617Z,19.77
2022-09-28T14:20:27.043Z,21.67
2022-09-28T14:23:12.416Z,23.30
2022-09-28T14:25:48.952Z,23.45
2022-09-28T14:28:42.030Z,27.83
2022-09-28T14:31:23.894Z,31.10
2022-09-28T14:34:02.096Z,36.13
2022-09-28T14:36:52.270Z,28.88
2022-09-28T14:39:44.158Z,26.35
2022-09-28T14:42:20.119Z,30.63
2022-09-28T14:45:23.939Z,28.90
2022-09-28T14:48:17.276Z,28.15
2022-09-28T14:50:49.448Z,25.27
2022-09-28T14:53:24.663Z,24.73
2022-09-28T14:56:00.286Z,24.70
2022-09-28T14:58:32.072Z,27.25
2022-09-28T15:01:08.674Z,25.80
2022-09-28T15:03:42.061Z,23.08
2022-09-28T15:06:18.547Z,22.77
2022-09-28T15:08:49.163Z,20.52
2022-09-28T15:11:23.840Z,21.98
2022-09-28T15:14:08.118Z,21.95
2022-09-28T15:16:38.788Z,23.08
2022-09-28T15:19:33.005Z,24.73
2022-09-28T15:22:03.467Z,24.02
2022-09-28T15:24:36.727Z,23.65
2022-09-28T15:27:19.077Z,23.45
2022-09-28T15:30:27.725Z,22.50
2022-09-28T15:33:18.932Z,24.00
2022-09-28T15:36:07.713Z,21.98
2022-09-28T15:38:38.751Z,22.83
2022-09-28T15:41:11.906Z,24.33
2022-09-28T15:43:43.499Z,26.23
2022-09-28T15:46:21.767Z,28.25
2022-09-28T15:48:57.492Z,26.52
2022-09-28T15:51:29.546Z,29.15
2022-09-28T15:54:21.278Z,27.05
2022-09-28T15:57:06.816Z,27.77
2022-09-28T15:59:41.573Z,26.63
2022-09-28T16:02:24.667Z,26.45
2022-09-28T16:05:00.781Z,29.08
2022-09-28T16:07:41.206Z,26.20
2022-09-28T16:10:33.296Z,26.88
2022-09-28T16:13:22.533Z,29.48
2022-09-28T16:16:01.871Z,27.55
2022-09-28T16:18:35.797Z,28.05
2022-09-28T16:21:31.338Z,26.23
2022-09-28T16:24:01.748Z,25.73
2022-09-28T16:26:39.378Z,25.80
2022-09-28T16:29:27.521Z,27.75
2022-09-28T16:31:58.172Z,24.52
2022-09-28T16:34:32.210Z,22.73
2022-09-28T16:37:02.802Z,23.50
2022-09-28T16:39:33.016Z,24.58
2022-09-28T16:42:05.675Z,22.70
2022-09-28T16:44:37.821Z,22.65
2022-09-28T16:47:17.961Z,23.98
2022-09-28T16:49:48.274Z,22.73
2022-09-28T16:52:38.091Z,22.13
2022-09-28T16:58:08.796Z,21.70
2022-09-28T17:00:39.222Z,22.00
2022-09-28T17:03:20.477Z,21.60
2022-09-28T17:05:51.810Z,21.08
2022-09-28T17:08:25.040Z,23.00
2022-09-28T17:11:24.105Z,24.67
2022-09-28T17:13:58.781Z,24.08
2022-09-28T17:17:02.369Z,25.30
2022-09-28T17:19:26.896Z,25.35
2022-09-28T17:21:57.364Z,26.23
2022-09-28T17:24:27.891Z,26.52
2022-09-28T17:26:59.136Z,26.98
2022-09-28T17:29:30.122Z,25.45
2022-09-28T17:32:00.482Z,24.70
2022-09-28T17:34:30.887Z,23.10
2022-09-28T17:37:01.980Z,23.35
2022-09-28T17:39:33.788Z,21.77
2022-09-28T17:42:04.152Z,21.50
2022-09-28T17:44:34.473Z,21.65
2022-09-28T17:47:04.849Z,20.67
2022-09-28T17:49:35.275Z,19.10
2022-09-28T17:52:07.493Z,20.20
2022-09-28T17:54:37.830Z,21.20
2022-09-28T17:57:08.117Z,19.75
2022-09-28T17:59:38.551Z,21.73
2022-09-28T18:02:11.944Z,20.35
2022-09-28T18:04:51.727Z,20.80
2022-09-28T18:07:22.364Z,20.23
2022-09-28T18:09:58.938Z,21.75
2022-09-28T18:12:29.590Z,19.48
2022-09-28T18:14:59.947Z,19.23
2022-09-28T18:17:30.235Z,20.10
2022-09-28T18:20:00.567Z,16.95
2022-09-28T18:22:30.990Z,18.33
2022-09-28T18:25:01.328Z,19.35
2022-09-28T18:27:32.579Z,18.48
2022-09-28T18:30:03.139Z,18.27
2022-09-28T18:32:33.487Z,19.67
2022-09-28T18:35:03.818Z,20.33
2022-09-28T18:37:38.422Z,20.83
2022-09-28T18:40:12.208Z,21.48
2022-09-28T18:42:43.376Z,21.52
2022-09-28T18:45:14.479Z,20.98
2022-09-28T18:47:45.386Z,19.52
2022-09-28T18:50:17.458Z,16.90
2022-09-28T18:52:49.413Z,16.85
2022-09-28T18:55:19.923Z,18.00
2022-09-28T18:57:50.626Z,16.30
2022-09-28T19:00:21.105Z,17.60
2022-09-28T19:02:51.966Z,18.27
2022-09-28T19:05:22.313Z,17.73
2022-09-28T19:07:52.643Z,18.40
2022-09-28T19:10:22.945Z,17.92
2022-09-28T19:12:54.196Z,20.40
2022-09-28T19:15:24.837Z,19.60
2022-09-28T19:17:55.286Z,19.95
2022-09-28T19:20:25.526Z,19.58
2022-09-28T19:22:56.047Z,17.75
2022-09-28T19:25:26.386Z,19.02
2022-09-28T19:27:56.800Z,17.63
2022-09-28T19:30:27.875Z,20.25
2022-09-28T19:32:58.602Z,17.02
2022-09-28T19:35:29.030Z,16.10
2022-09-28T19:37:59.552Z,17.08
2022-09-28T19:40:29.890Z,17.92
2022-09-28T19:43:01.904Z,16.90
2022-09-28T19:45:32.832Z,17.02
2022-09-28T19:48:05.295Z,17.85
2022-09-28T19:50:35.653Z,18.05
2022-09-28T19:53:08.809Z,17.20
2022-09-28T19:55:39.297Z,17.85
2022-09-28T19:58:10.084Z,18.25
2022-09-28T20:00:40.639Z,18.90
2022-09-28T20:03:10.997Z,20.15
2022-09-28T20:05:43.454Z,21.08
2022-09-28T20:08:17.005Z,19.38
2022-09-28T20:11:03.222Z,20.50
2022-09-28T20:13:37.053Z,21.23
2022-09-28T20:16:10.062Z,20.50
2022-09-28T20:18:45.614Z,21.23
2022-09-28T20:21:18.128Z,18.55
2022-09-28T20:23:50.030Z,20.42
2022-09-28T20:26:20.880Z,19.33
2022-09-28T20:28:51.290Z,18.65
2022-09-28T20:31:24.725Z,18.20
2022-09-28T20:33:55.582Z,18.65
2022-09-28T20:36:27.581Z,19.23
2022-09-28T20:39:00.589Z,19.27
2022-09-28T20:41:35.934Z,18.08
2022-09-28T20:44:08.019Z,19.45
2022-09-28T20:46:39.302Z,19.00
2022-09-28T20:49:09.816Z,19.83
2022-09-28T20:51:40.134Z,17.35
2022-09-28T20:54:10.648Z,19.90
2022-09-28T20:56:41.306Z,18.73
2022-09-28T20:59:14.649Z,18.92
2022-09-28T21:01:45.235Z,19.08
2022-09-28T21:04:15.830Z,19.55
2022-09-28T21:06:46.271Z,18.58
2022-09-28T21:09:16.662Z,19.98
2022-09-28T21:11:47.100Z,19.40
2022-09-28T21:14:17.478Z,18.70
2022-09-28T21:16:47.823Z,18.08
2022-09-28T21:19:18.111Z,19.02
2022-09-28T21:21:48.404Z,19.13
2022-09-28T21:24:18.874Z,18.30
2022-09-28T21:26:49.357Z,21.55
2022-09-28T21:29:19.771Z,18.95
2022-09-28T21:31:50.665Z,20.27
2022-09-28T21:34:22.574Z,20.08
2022-09-28T21:36:54.595Z,20.20
2022-09-28T21:39:25.117Z,18.95
2022-09-28T21:41:56.025Z,22.77
2022-09-28T21:44:26.336Z,21.02
2022-09-28T21:46:56.875Z,18.27
2022-09-28T21:49:27.308Z,19.17
2022-09-28T21:51:57.688Z,19.15
2022-09-28T21:54:28.063Z,20.70
2022-09-28T21:56:58.476Z,18.85
2022-09-28T21:59:28.800Z,20.17
2022-09-28T22:01:59.297Z,19.75
2022-09-28T22:04:29.593Z,19.60
2022-09-28T22:07:00.002Z,18.65
2022-09-28T22:09:30.493Z,19.58
2022-09-28T22:12:01.208Z,18.65
2022-09-28T22:14:31.616Z,17.70
2022-09-28T22:17:01.990Z,17.92
2022-09-28T22:19:32.658Z,16.58
2022-09-28T22:22:02.975Z,18.10
2022-09-28T22:24:33.343Z,19.48
2022-09-28T22:27:03.698Z,17.40
2022-09-28T22:29:34.048Z,17.98
2022-09-28T22:32:05.200Z,17.52
2022-09-28T22:34:36.009Z,17.65
2022-09-28T22:37:06.886Z,16.95
2022-09-28T22:39:37.991Z,18.48
2022-09-28T22:42:09.335Z,18.23
2022-09-28T22:44:39.857Z,17.05
2022-09-28T22:47:10.208Z,15.70
2022-09-28T22:49:40.579Z,16.25
2022-09-28T22:52:10.878Z,16.02
2022-09-28T22:54:42.542Z,16.60
2022-09-28T22:57:12.902Z,16.83
2022-09-28T22:59:43.206Z,15.63
2022-09-28T23:02:13.780Z,15.20
2022-09-28T23:04:44.086Z,15.93
2022-09-28T23:07:14.599Z,15.95
2022-09-28T23:09:44.936Z,16.20
2022-09-28T23:12:15.370Z,16.75
2022-09-28T23:14:46.022Z,16.08
2022-09-28T23:17:16.525Z,16.55
2022-09-28T23:19:46.898Z,16.92
2022-09-28T23:22:17.520Z,17.60
2022-09-28T23:24:47.895Z,17.40
2022-09-28T23:27:18.250Z,18.55
2022-09-28T23:29:49.658Z,17.63
2022-09-28T23:32:20.289Z,16.10
2022-09-28T23:34:50.667Z,17.75
2022-09-28T23:37:21.052Z,15.98
2022-09-28T23:39:52.247Z,17.73
2022-09-28T23:42:23.045Z,18.25
2022-09-28T23:44:53.365Z,18.73
2022-09-28T23:47:23.912Z,17.23
2022-09-28T23:49:54.416Z,16.88
2022-09-28T23:52:24.818Z,17.98
2022-09-28T23:54:55.297Z,19.08
2022-09-28T23:57:25.608Z,18.05
2022-09-28T23:59:55.962Z,18.05
